Time;durP1;ratioP1;P1;durP2;ratioP2;P2;SDS_P1;SDS_P2;PMS_P1;PMS_P2;Temp;Humidity;BMP_temperature;BMP_pressure;BME280_temperature;BME280_humidity;BME280_pressure;Samples;Min_cycle;Max_cycle;Signal;HPM_P1;HPM_P2
2021/06/21 00:01:26;;;;;;;;;5.75;5.75;;;;;23.63;60.22;100021.81;5064619;28;45504;-83
2021/06/21 00:03:52;;;;;;;;;7.75;5.00;;;;;23.62;60.20;100023.69;5071233;27;45448;-83
2021/06/21 00:06:17;;;;;;;;;9.75;5.75;;;;;23.60;61.47;100022.22;5077410;28;45521;-83
2021/06/21 00:08:43;;;;;;;;;8.00;7.00;;;;;23.58;59.47;100013.53;5069992;27;45434;-84
2021/06/21 00:11:09;;;;;;;;;5.75;5.50;;;;;23.60;59.53;100011.44;5066754;27;45503;-83
2021/06/21 00:13:34;;;;;;;;;9.75;7.25;;;;;23.61;60.07;100011.25;5069737;28;45620;-84
2021/06/21 00:16:00;;;;;;;;;7.00;6.50;;;;;23.62;60.15;100012.06;5077122;28;45518;-83
2021/06/21 00:18:25;;;;;;;;;8.00;7.00;;;;;23.65;59.97;100017.91;5075485;27;45678;-84
2021/06/21 00:20:52;;;;;;;;;4.75;4.75;;;;;23.66;59.48;100016.88;5069024;28;45439;-84
2021/06/21 00:23:19;;;;;;;;;10.75;6.75;;;;;23.63;59.94;100005.66;5071839;27;45310;-84
2021/06/21 00:25:45;;;;;;;;;7.00;6.50;;;;;23.66;59.42;100010.66;5068821;28;46961;-84
2021/06/21 00:28:11;;;;;;;;;7.00;7.00;;;;;23.64;60.01;100010.84;5073717;27;45297;-81
2021/06/21 00:30:36;;;;;;;;;6.25;6.25;;;;;23.64;59.79;100013.53;5073952;28;46157;-83
2021/06/21 00:33:02;;;;;;;;;13.00;6.25;;;;;23.60;60.22;100016.84;5073031;27;45554;-83
2021/06/21 00:35:28;;;;;;;;;6.75;5.75;;;;;23.56;60.05;100026.38;5071871;27;46451;-83
2021/06/21 00:37:54;;;;;;;;;7.25;7.25;;;;;23.55;59.59;100032.81;5075710;28;45429;-84
2021/06/21 00:40:19;;;;;;;;;7.75;7.00;;;;;23.50;59.91;100028.84;5066073;28;45534;-83
2021/06/21 00:42:46;;;;;;;;;6.75;6.75;;;;;23.44;60.15;100020.72;5061088;28;45404;-82
2021/06/21 00:45:14;;;;;;;;;6.00;6.00;;;;;23.41;60.02;100019.25;5075790;28;45431;-83
2021/06/21 00:47:40;;;;;;;;;4.50;4.50;;;;;23.37;59.72;100022.59;5073684;28;45696;-82
2021/06/21 00:50:05;;;;;;;;;6.25;5.75;;;;;23.23;60.02;100028.94;5074317;27;45666;-83
2021/06/21 00:52:31;;;;;;;;;5.00;5.00;;;;;23.17;60.36;100027.91;5063588;27;45682;-83
2021/06/21 00:55:00;;;;;;;;;5.25;4.25;;;;;23.13;60.71;100024.78;5071557;28;45415;-84
2021/06/21 00:57:29;;;;;;;;;4.75;4.75;;;;;23.08;60.24;100026.44;5074345;28;45355;-82
2021/06/21 00:59:57;;;;;;;;;4.75;4.75;;;;;23.05;60.19;100022.28;5074055;28;45311;-82
2021/06/21 01:02:23;;;;;;;;;6.50;5.75;;;;;23.05;59.90;100027.66;5061364;28;45555;-82
2021/06/21 01:04:48;;;;;;;;;6.00;4.75;;;;;23.04;59.98;100023.28;5075904;28;46191;-83
2021/06/21 01:07:14;;;;;;;;;5.25;5.25;;;;;23.04;60.62;100025.16;5064805;28;45457;-83
2021/06/21 01:09:40;;;;;;;;;5.50;5.50;;;;;23.01;60.49;100021.03;5070299;28;45411;-83
2021/06/21 01:12:19;;;;;;;;;5.50;4.50;;;;;22.99;60.72;100020.41;5073010;28;45398;-83
2021/06/21 01:14:49;;;;;;;;;7.25;5.50;;;;;22.98;60.70;100020.59;5067925;28;46956;-83
2021/06/21 01:17:26;;;;;;;;;6.00;6.00;;;;;22.97;61.06;100018.94;5067603;28;45440;-83
2021/06/21 01:20:29;;;;;;;;;7.75;7.00;;;;;22.98;61.28;100009.81;5073533;28;45169;-83
2021/06/21 01:23:14;;;;;;;;;6.50;6.50;;;;;22.99;61.14;100016.88;5075019;28;45411;-83
2021/06/21 01:25:48;;;;;;;;;9.50;9.00;;;;;23.00;61.21;100019.38;5067262;27;45682;-83
2021/06/21 01:28:28;;;;;;;;;9.75;8.50;;;;;22.99;61.06;100023.09;5067127;27;45460;-83
2021/06/21 01:31:08;;;;;;;;;8.75;8.00;;;;;22.98;61.62;100021.41;5064241;28;45200;-83
2021/06/21 01:33:35;;;;;;;;;10.00;9.25;;;;;22.96;61.33;100023.47;5070117;27;45461;-83
2021/06/21 01:36:03;;;;;;;;;10.00;10.00;;;;;22.96;61.42;100028.88;5072761;28;48070;-83
2021/06/21 01:38:33;;;;;;;;;11.25;11.25;;;;;22.96;62.06;100020.78;5077647;28;45371;-83
2021/06/21 01:41:03;;;;;;;;;11.00;9.00;;;;;22.98;61.66;100026.81;5083061;27;45412;-83
2021/06/21 01:43:51;;;;;;;;;9.00;9.00;;;;;23.03;61.90;100028.91;5077880;28;45673;-83
2021/06/21 01:46:19;;;;;;;;;12.00;11.00;;;;;23.03;62.15;100039.69;5071720;28;48369;-84
2021/06/21 01:48:50;;;;;;;;;10.00;10.00;;;;;23.00;62.21;100030.13;5067454;28;45446;-83
2021/06/21 01:51:18;;;;;;;;;15.75;13.50;;;;;22.98;61.59;100028.66;5066158;28;45652;-83
2021/06/21 01:53:47;;;;;;;;;10.25;10.00;;;;;22.96;61.36;100028.03;5064266;28;46061;-83
2021/06/21 01:56:35;;;;;;;;;12.50;10.25;;;;;22.93;62.08;100034.69;5077725;27;45562;-83
2021/06/21 01:59:04;;;;;;;;;15.50;11.50;;;;;22.88;61.57;100039.81;5068430;27;46247;-84
2021/06/21 02:01:31;;;;;;;;;14.75;13.00;;;;;22.85;61.57;100037.53;5092778;27;45489;-83
2021/06/21 02:04:00;;;;;;;;;10.50;10.00;;;;;22.83;60.92;100033.38;5073196;28;45418;-83
2021/06/21 02:06:29;;;;;;;;;12.00;11.75;;;;;22.77;61.58;100038.50;5073857;28;46278;-83
2021/06/21 02:08:56;;;;;;;;;11.50;11.00;;;;;22.73;61.68;100049.88;5067341;28;45470;-83
2021/06/21 02:11:24;;;;;;;;;9.00;9.00;;;;;22.74;60.98;100049.69;5062316;28;45450;-83
2021/06/21 02:13:51;;;;;;;;;10.75;7.50;;;;;22.72;60.74;100054.41;5075073;28;45665;-84
2021/06/21 02:16:17;;;;;;;;;7.00;7.00;;;;;22.68;60.55;100052.31;5068927;28;47327;-83
2021/06/21 02:18:43;;;;;;;;;8.00;6.75;;;;;22.66;60.16;100047.16;5076507;28;45924;-83
2021/06/21 02:21:12;;;;;;;;;6.50;4.50;;;;;22.62;60.45;100047.72;5085283;27;45419;-83
2021/06/21 02:23:38;;;;;;;;;5.00;5.00;;;;;22.60;60.37;100049.78;5078318;27;45583;-83
2021/06/21 02:26:04;;;;;;;;;5.75;4.00;;;;;22.58;59.49;100054.53;5081948;28;48463;-83
2021/06/21 02:28:32;;;;;;;;;1.50;1.50;;;;;22.53;59.32;100038.16;5082180;28;45382;-83
2021/06/21 02:30:59;;;;;;;;;4.00;3.00;;;;;22.50;59.50;100043.91;5082104;28;45341;-83
2021/06/21 02:33:25;;;;;;;;;5.00;3.00;;;;;22.44;59.12;100048.25;5066772;28;45471;-83
2021/06/21 02:35:51;;;;;;;;;3.50;3.50;;;;;22.37;59.07;100050.06;5065455;28;47366;-81
2021/06/21 02:38:17;;;;;;;;;5.75;4.25;;;;;22.31;59.85;100051.66;5069552;28;45429;-83
2021/06/21 02:40:42;;;;;;;;;3.75;3.75;;;;;22.15;60.25;100064.56;5077179;28;45476;-83
2021/06/21 02:43:08;;;;;;;;;5.00;3.50;;;;;22.07;60.16;100053.97;5077698;28;45398;-83
2021/06/21 02:45:34;;;;;;;;;4.75;4.75;;;;;22.05;60.21;100056.00;5067395;28;45490;-83
2021/06/21 02:48:05;;;;;;;;;3.00;3.00;;;;;22.02;60.57;100066.16;5072326;28;45557;-84
2021/06/21 02:50:31;;;;;;;;;3.00;3.00;;;;;22.06;60.22;100054.97;5071828;27;45388;-83
2021/06/21 02:53:06;;;;;;;;;4.50;4.50;;;;;22.07;60.18;100060.16;5074375;27;45412;-84
2021/06/21 02:55:40;;;;;;;;;4.50;2.50;;;;;21.97;60.68;100052.44;5074906;28;46606;-83
2021/06/21 02:58:25;;;;;;;;;3.00;3.00;;;;;21.97;60.61;100060.50;5068343;28;46402;-83
2021/06/21 03:00:53;;;;;;;;;3.50;2.50;;;;;21.94;60.47;100068.09;5094622;27;45432;-83
2021/06/21 03:03:22;;;;;;;;;6.00;3.00;;;;;21.92;60.39;100067.47;5071149;27;45428;-84
2021/06/21 03:05:50;;;;;;;;;4.25;3.75;;;;;21.93;61.06;100072.66;5082717;27;45487;-84
2021/06/21 03:08:18;;;;;;;;;5.00;4.00;;;;;21.89;60.68;100074.03;5083150;27;45547;-83
2021/06/21 03:10:44;;;;;;;;;4.25;3.00;;;;;21.86;60.20;100087.03;5070313;27;45422;-84
2021/06/21 03:13:12;;;;;;;;;4.25;3.00;;;;;21.86;60.75;100081.66;5074189;28;45939;-84
2021/06/21 03:15:38;;;;;;;;;6.50;4.00;;;;;21.85;60.93;100080.03;5070830;28;46161;-83
2021/06/21 03:18:05;;;;;;;;;5.25;4.00;;;;;21.85;60.79;100069.25;5073191;28;45914;-83
2021/06/21 03:20:31;;;;;;;;;5.00;4.00;;;;;21.82;61.19;100072.31;5062468;28;45453;-83
2021/06/21 03:23:00;;;;;;;;;4.00;4.00;;;;;21.85;60.73;100082.72;5072754;28;45210;-84
2021/06/21 03:25:31;;;;;;;;;5.00;5.00;;;;;21.87;60.57;100086.00;5078385;28;46304;-83
2021/06/21 03:27:57;;;;;;;;;7.50;6.75;;;;;21.88;60.91;100076.94;5081193;27;45421;-84
2021/06/21 03:30:24;;;;;;;;;4.50;3.50;;;;;21.90;60.59;100081.09;5080367;28;45176;-83
2021/06/21 03:32:52;;;;;;;;;8.75;5.00;;;;;21.88;60.65;100076.94;5075130;28;45330;-84
2021/06/21 03:35:18;;;;;;;;;3.75;3.75;;;;;21.87;60.97;100083.31;5074015;28;47232;-84
2021/06/21 03:37:44;;;;;;;;;4.50;4.50;;;;;21.88;61.08;100077.75;5077699;28;44912;-83
2021/06/21 03:40:11;;;;;;;;;6.00;6.00;;;;;21.90;60.66;100081.09;5070902;28;45344;-83
2021/06/21 03:42:38;;;;;;;;;6.00;6.00;;;;;21.98;60.50;100074.78;5076173;28;45388;-83
2021/06/21 03:45:05;;;;;;;;;6.00;4.75;;;;;22.03;60.24;100072.34;5079035;28;47928;-84
2021/06/21 03:47:30;;;;;;;;;5.25;4.00;;;;;22.12;60.37;100076.56;5076105;28;45985;-83
2021/06/21 03:49:56;;;;;;;;;7.00;5.50;;;;;22.16;60.38;100079.69;5073209;28;45317;-83
2021/06/21 03:52:21;;;;;;;;;6.00;4.75;;;;;22.15;59.74;100084.22;5080540;28;45519;-83
2021/06/21 03:54:47;;;;;;;;;5.00;4.75;;;;;22.16;59.97;100080.53;5072638;28;46748;-83
2021/06/21 03:57:13;;;;;;;;;5.00;4.00;;;;;22.16;60.08;100088.59;5072336;28;45344;-83
2021/06/21 03:59:38;;;;;;;;;5.00;5.00;;;;;22.14;60.00;100090.63;5071025;28;45716;-83
2021/06/21 04:02:04;;;;;;;;;3.50;3.50;;;;;22.08;59.90;100091.41;5073665;28;45358;-83
2021/06/21 04:04:30;;;;;;;;;5.25;4.00;;;;;22.08;59.93;100094.09;5070777;28;45491;-83
2021/06/21 04:06:55;;;;;;;;;4.00;4.00;;;;;22.07;60.29;100094.28;5078275;28;45511;-83
2021/06/21 04:09:21;;;;;;;;;8.50;5.00;;;;;22.06;60.08;100089.94;5068855;28;45537;-82
2021/06/21 04:11:47;;;;;;;;;6.00;6.00;;;;;22.01;59.76;100099.44;5067120;27;45420;-83
2021/06/21 04:14:14;;;;;;;;;5.75;4.50;;;;;21.94;59.55;100103.06;5068116;28;45529;-83
2021/06/21 04:16:39;;;;;;;;;5.25;5.25;;;;;21.86;59.97;100101.31;5068727;27;45254;-83
2021/06/21 04:19:05;;;;;;;;;7.50;6.00;;;;;21.81;60.12;100103.75;5071388;28;45560;-83
2021/06/21 04:21:30;;;;;;;;;5.75;5.25;;;;;21.78;60.08;100100.59;5075570;28;45473;-83
2021/06/21 04:23:56;;;;;;;;;6.00;5.00;;;;;21.72;60.44;100096.00;5069985;28;47344;-83
2021/06/21 04:26:23;;;;;;;;;7.00;5.25;;;;;21.70;60.64;100101.56;5068321;28;45457;-83
2021/06/21 04:28:48;;;;;;;;;5.25;4.00;;;;;21.69;60.39;100118.69;5073779;28;45345;-82
2021/06/21 04:31:14;;;;;;;;;6.00;6.00;;;;;21.68;60.51;100111.66;5074930;28;45400;-83
2021/06/21 04:33:39;;;;;;;;;4.25;4.00;;;;;21.69;60.43;100109.81;5073037;28;47243;-82
2021/06/21 04:36:05;;;;;;;;;7.25;6.00;;;;;21.70;60.44;100104.25;5072370;28;45735;-83
2021/06/21 04:38:31;;;;;;;;;5.50;5.50;;;;;21.74;60.52;100108.22;5075488;28;45319;-83
2021/06/21 04:40:56;;;;;;;;;8.00;5.75;;;;;21.78;59.93;100108.66;5065131;28;45370;-83
2021/06/21 04:43:22;;;;;;;;;7.00;6.00;;;;;21.79;60.38;100107.66;5075625;28;45416;-83
2021/06/21 04:45:47;;;;;;;;;7.75;6.00;;;;;21.79;60.43;100100.41;5077161;27;45424;-83
2021/06/21 04:48:13;;;;;;;;;7.00;6.25;;;;;21.81;60.75;100114.50;5064014;27;45574;-83
2021/06/21 04:50:40;;;;;;;;;9.00;6.25;;;;;21.89;60.51;100117.06;5073609;28;45306;-82
2021/06/21 04:53:06;;;;;;;;;7.00;7.00;;;;;22.03;60.13;100110.81;5062401;28;46290;-83
2021/06/21 04:55:31;;;;;;;;;5.75;5.25;;;;;22.15;59.92;100119.19;5073791;28;45461;-83
2021/06/21 04:57:57;;;;;;;;;8.25;5.25;;;;;22.22;59.64;100124.63;5064177;27;45511;-83
2021/06/21 05:00:25;;;;;;;;;5.00;5.00;;;;;22.25;59.43;100127.75;5071811;27;45492;-83
2021/06/21 05:02:51;;;;;;;;;9.75;6.00;;;;;22.29;59.34;100138.97;5073187;28;47055;-83
2021/06/21 05:05:18;;;;;;;;;5.25;4.75;;;;;22.34;59.36;100129.28;5065905;28;45356;-83
2021/06/21 05:07:47;;;;;;;;;7.75;6.50;;;;;22.40;58.91;100133.03;5067576;28;45390;-83
2021/06/21 05:10:14;;;;;;;;;8.00;6.00;;;;;22.43;58.99;100129.97;5079523;27;45409;-83
2021/06/21 05:12:39;;;;;;;;;6.50;6.50;;;;;22.41;58.91;100126.66;5068319;27;45419;-84
2021/06/21 05:15:06;;;;;;;;;10.50;7.00;;;;;22.38;58.55;100133.25;5075510;28;45737;-83
2021/06/21 05:17:31;;;;;;;;;9.00;6.25;;;;;22.37;58.91;100141.53;5071947;28;45347;-82
2021/06/21 05:19:57;;;;;;;;;5.50;4.00;;;;;22.35;58.63;100146.25;5081760;27;45748;-83
2021/06/21 05:22:22;;;;;;;;;6.00;6.00;;;;;22.31;59.19;100144.97;5076435;27;45128;-83
2021/06/21 05:24:48;;;;;;;;;8.25;6.25;;;;;22.34;58.78;100152.66;5080106;28;45493;-83
2021/06/21 05:27:13;;;;;;;;;10.75;7.75;;;;;22.33;59.04;100149.16;5081604;27;45541;-83
2021/06/21 05:29:39;;;;;;;;;7.50;7.50;;;;;22.32;59.28;100135.88;5069778;28;45457;-83
2021/06/21 05:32:05;;;;;;;;;8.00;8.00;;;;;22.31;59.15;100137.75;5072468;27;45474;-82
2021/06/21 05:34:31;;;;;;;;;8.75;6.00;;;;;22.28;59.05;100138.16;5073000;28;45488;-83
2021/06/21 05:36:57;;;;;;;;;7.75;7.00;;;;;22.21;58.75;100139.13;5070819;28;45615;-83
2021/06/21 05:39:23;;;;;;;;;10.75;7.00;;;;;22.20;59.11;100143.66;5073774;27;45620;-82
2021/06/21 05:41:48;;;;;;;;;8.75;6.00;;;;;22.17;59.15;100153.97;5069600;27;46207;-82
2021/06/21 05:44:14;;;;;;;;;5.75;5.75;;;;;22.21;59.09;100157.94;5083299;27;45751;-83
2021/06/21 05:46:39;;;;;;;;;10.00;7.50;;;;;22.20;58.59;100153.59;5070017;28;45740;-84
2021/06/21 05:49:05;;;;;;;;;6.25;5.00;;;;;22.26;58.48;100156.34;5072214;28;45716;-84
2021/06/21 05:51:30;;;;;;;;;6.50;5.50;;;;;22.30;58.57;100160.31;5072208;27;45539;-84
2021/06/21 05:53:56;;;;;;;;;6.75;6.75;;;;;22.38;58.36;100165.56;5070493;27;45429;-84
2021/06/21 05:56:21;;;;;;;;;8.25;8.00;;;;;22.44;58.24;100160.41;5072169;28;45489;-84
2021/06/21 05:58:46;;;;;;;;;5.00;5.00;;;;;22.50;58.17;100171.22;5068468;27;45619;-84
2021/06/21 06:01:12;;;;;;;;;7.00;6.00;;;;;22.62;57.61;100171.53;5077324;27;46920;-84
2021/06/21 06:03:37;;;;;;;;;9.25;7.25;;;;;22.69;57.35;100181.31;5074581;27;45524;-84
2021/06/21 06:06:03;;;;;;;;;6.00;6.00;;;;;22.74;57.40;100186.13;5068873;27;45641;-84
2021/06/21 06:08:29;;;;;;;;;7.50;7.00;;;;;22.80;57.30;100182.66;5074958;28;45452;-84
2021/06/21 06:10:54;;;;;;;;;7.00;7.00;;;;;22.83;56.87;100186.84;5074406;28;45960;-84
2021/06/21 06:13:20;;;;;;;;;8.75;6.50;;;;;22.66;56.84;100187.09;5073826;28;45990;-84
2021/06/21 06:15:46;;;;;;;;;8.00;7.00;;;;;22.60;56.75;100187.03;5071971;27;45425;-84
2021/06/21 06:18:11;;;;;;;;;7.25;7.00;;;;;22.67;56.65;100188.75;5074037;28;45808;-85
2021/06/21 06:20:37;;;;;;;;;5.75;5.75;;;;;22.69;56.48;100199.31;5069467;28;45745;-85
2021/06/21 06:23:04;;;;;;;;;6.75;6.75;;;;;22.72;56.35;100190.84;5075287;27;45841;-84
2021/06/21 06:25:33;;;;;;;;;7.00;6.00;;;;;22.83;56.44;100197.59;5076023;28;45420;-85
2021/06/21 06:27:59;;;;;;;;;6.00;6.00;;;;;22.96;55.81;100200.38;5078290;27;45302;-83
2021/06/21 06:30:25;;;;;;;;;9.00;6.25;;;;;23.11;55.44;100199.25;5066446;27;45440;-84
2021/06/21 06:32:51;;;;;;;;;5.25;5.25;;;;;23.21;55.39;100201.59;5078633;27;45462;-83
2021/06/21 06:35:17;;;;;;;;;6.25;5.00;;;;;23.33;54.84;100202.66;5073088;27;45408;-83
2021/06/21 06:37:43;;;;;;;;;6.00;6.00;;;;;23.49;54.54;100201.53;5067064;28;45909;-83
2021/06/21 06:40:10;;;;;;;;;5.75;5.25;;;;;23.66;54.23;100192.09;5077508;27;47483;-81
2021/06/21 06:42:35;;;;;;;;;5.50;5.00;;;;;23.88;52.76;100185.50;5070422;28;45597;-82
2021/06/21 06:45:01;;;;;;;;;6.00;5.00;;;;;23.93;52.81;100184.09;5076564;27;45410;-86
2021/06/21 06:47:26;;;;;;;;;6.25;5.75;;;;;23.99;51.87;100176.00;5074289;27;45591;-84
2021/06/21 06:49:52;;;;;;;;;7.00;7.00;;;;;24.08;52.41;100188.25;5071385;28;46440;-87
2021/06/21 06:52:20;;;;;;;;;7.25;6.00;;;;;24.15;52.06;100183.69;5074198;28;45496;-86
2021/06/21 06:57:12;;;;;;;;;7.50;6.00;;;;;24.42;51.15;100179.19;5072786;28;45485;-88
2021/06/21 06:59:39;;;;;;;;;5.50;5.50;;;;;24.53;50.64;100183.97;5078883;28;46910;-86
2021/06/21 07:02:07;;;;;;;;;6.00;5.25;;;;;24.56;50.03;100194.38;5083403;27;45442;-88
2021/06/21 07:04:42;;;;;;;;;7.00;7.00;;;;;24.48;49.46;100191.03;5075359;28;45251;-88
2021/06/21 07:07:08;;;;;;;;;6.00;6.00;;;;;24.47;50.37;100187.50;5076159;28;45452;-87
2021/06/21 07:09:35;;;;;;;;;8.25;6.50;;;;;24.43;48.87;100186.25;5081773;28;46086;-87
2021/06/21 07:12:00;;;;;;;;;8.50;6.00;;;;;24.36;50.01;100196.22;5075854;27;45453;-87
2021/06/21 07:14:26;;;;;;;;;5.00;5.00;;;;;24.43;49.97;100194.34;5067817;28;45489;-88
2021/06/21 07:16:52;;;;;;;;;8.50;6.00;;;;;24.55;49.85;100208.91;5076395;28;45806;-86
2021/06/21 07:19:18;;;;;;;;;5.00;4.50;;;;;24.74;48.60;100195.59;5069227;28;46183;-87
2021/06/21 07:21:45;;;;;;;;;5.00;5.00;;;;;24.91;49.21;100204.94;5070341;28;45357;-87
2021/06/21 07:24:11;;;;;;;;;7.00;6.00;;;;;25.04;48.74;100199.53;5066383;28;45381;-87
2021/06/21 07:26:38;;;;;;;;;5.00;5.00;;;;;25.19;47.88;100200.13;5071981;28;45363;-87
2021/06/21 07:29:05;;;;;;;;;7.75;6.00;;;;;26.43;48.58;100199.78;5066882;28;47307;-87
2021/06/21 07:31:32;;;;;;;;;6.00;6.00;;;;;27.73;42.94;100209.56;5082593;27;45184;-87
2021/06/21 07:33:57;;;;;;;;;6.25;6.25;;;;;28.76;42.46;100208.47;5079830;27;45322;-86
2021/06/21 07:36:23;;;;;;;;;7.00;5.00;;;;;28.52;39.91;100207.59;5078898;28;45482;-89
2021/06/21 07:38:48;;;;;;;;;6.25;6.25;;;;;27.87;42.07;100219.16;5070956;28;46916;-88
2021/06/21 07:41:14;;;;;;;;;7.00;5.00;;;;;27.23;42.17;100225.13;5074213;28;45438;-87
2021/06/21 07:43:39;;;;;;;;;2.00;2.00;;;;;26.71;43.39;100221.84;5064675;28;45437;-87
2021/06/21 07:46:05;;;;;;;;;5.00;5.00;;;;;26.39;43.95;100231.91;5077154;27;45417;-88
2021/06/21 07:48:30;;;;;;;;;5.00;5.00;;;;;26.38;44.02;100230.22;5071287;27;48008;-88
2021/06/21 07:50:56;;;;;;;;;3.75;3.75;;;;;26.59;44.11;100229.00;5069735;27;45530;-87
2021/06/21 07:53:24;;;;;;;;;6.00;4.00;;;;;26.75;43.39;100233.91;5076846;27;45507;-87
2021/06/21 07:55:51;;;;;;;;;5.25;5.00;;;;;27.30;42.19;100233.22;5083963;27;45272;-88
2021/06/21 07:58:17;;;;;;;;;5.00;4.25;;;;;27.73;41.58;100238.56;5068721;27;45438;-87
2021/06/21 08:00:42;;;;;;;;;6.50;5.00;;;;;28.46;41.50;100238.41;5071301;27;45238;-87
2021/06/21 08:03:11;;;;;;;;;4.75;4.75;;;;;29.14;38.03;100238.75;5073156;28;45456;-88
2021/06/21 08:05:41;;;;;;;;;3.25;3.25;;;;;29.46;39.39;100243.84;5075597;28;46488;-88
2021/06/21 08:08:07;;;;;;;;;5.50;4.00;;;;;28.87;37.59;100238.38;5074804;28;48146;-88
2021/06/21 08:10:33;;;;;;;;;4.50;3.00;;;;;29.53;36.93;100237.19;5071109;27;45404;-87
2021/06/21 08:12:59;;;;;;;;;2.50;2.00;;;;;31.68;32.99;100244.25;5067270;28;45413;-87
2021/06/21 08:15:24;;;;;;;;;2.50;2.25;;;;;33.61;27.73;100251.41;5074180;28;45851;-87
2021/06/21 08:17:49;;;;;;;;;4.00;2.75;;;;;35.14;29.11;100250.63;5071918;28;47197;-87
2021/06/21 08:20:15;;;;;;;;;2.75;2.50;;;;;36.39;25.06;100255.91;5074205;28;45541;-87
2021/06/21 08:22:41;;;;;;;;;4.00;2.25;;;;;37.53;24.76;100253.47;5070074;27;45488;-87
2021/06/21 08:25:07;;;;;;;;;3.00;1.50;;;;;38.47;25.29;100261.88;5069719;28;45618;-88
2021/06/21 08:27:34;;;;;;;;;1.75;1.25;;;;;39.77;24.10;100259.84;5076963;27;45266;-88
2021/06/21 08:29:59;;;;;;;;;1.00;1.00;;;;;41.10;22.54;100253.66;5068529;28;45232;-87
2021/06/21 08:32:26;;;;;;;;;1.00;1.00;;;;;41.89;20.55;100258.31;5081563;27;45218;-87
2021/06/21 08:34:52;;;;;;;;;2.00;1.25;;;;;42.40;21.08;100259.56;5075476;27;45906;-87
2021/06/21 08:37:18;;;;;;;;;1.00;1.00;;;;;42.83;19.12;100260.34;5080716;28;46281;-88
2021/06/21 08:39:44;;;;;;;;;2.00;1.00;;;;;43.27;19.42;100256.28;5076792;28;45527;-88
2021/06/21 08:42:10;;;;;;;;;2.25;2.25;;;;;43.43;17.31;100259.34;5071847;28;45169;-88
2021/06/21 08:44:36;;;;;;;;;3.00;1.50;;;;;44.12;17.31;100245.03;5076166;27;45401;-87
2021/06/21 08:47:04;;;;;;;;;2.75;1.75;;;;;45.18;15.68;100248.09;5080574;28;45562;-87
2021/06/21 08:49:33;;;;;;;;;3.00;1.50;;;;;46.42;15.14;100249.25;5066352;28;45537;-85
2021/06/21 08:51:58;;;;;;;;;2.00;2.00;;;;;46.79;13.29;100252.72;5063736;28;45422;-86
2021/06/21 08:54:24;;;;;;;;;1.00;1.00;;;;;47.17;13.84;100254.09;5062351;28;45548;-86
2021/06/21 08:56:49;;;;;;;;;3.25;1.75;;;;;47.50;11.97;100262.13;5067820;27;48554;-85
2021/06/21 08:59:15;;;;;;;;;1.75;1.00;;;;;47.98;12.94;100247.69;5085434;27;45427;-86
2021/06/21 09:01:41;;;;;;;;;1.00;1.00;;;;;48.47;13.25;100254.72;5082972;27;45408;-83
2021/06/21 09:04:10;;;;;;;;;0.75;0.75;;;;;48.07;11.37;100253.09;5073714;27;45481;-86
2021/06/21 09:06:38;;;;;;;;;0.00;0.00;;;;;46.96;12.93;100257.13;5062001;28;45336;-86
2021/06/21 09:09:04;;;;;;;;;1.00;0.00;;;;;47.16;11.56;100261.69;5066233;28;48068;-86
2021/06/21 09:11:45;;;;;;;;;1.50;0.00;;;;;47.95;11.09;100262.41;5076790;28;45395;-86
2021/06/21 09:14:33;;;;;;;;;1.00;1.00;;;;;48.67;10.26;100253.53;5066873;28;48160;-86
2021/06/21 09:17:09;;;;;;;;;0.25;0.25;;;;;49.67;10.90;100262.50;5076880;27;46198;-86
2021/06/21 09:20:03;;;;;;;;;0.00;0.00;;;;;51.09;9.84;100264.25;5078177;28;45500;-86
2021/06/21 09:22:33;;;;;;;;;0.75;0.00;;;;;51.80;7.83;100275.31;5062303;28;45455;-86
2021/06/21 09:25:04;;;;;;;;;0.00;0.00;;;;;52.21;8.69;100262.66;5068441;28;45386;-86
2021/06/21 09:27:29;;;;;;;;;0.75;0.00;;;;;52.38;10.51;100265.94;5071415;28;45428;-87
2021/06/21 09:29:55;;;;;;;;;0.00;0.00;;;;;51.87;9.85;100267.72;5070924;27;45341;-86
2021/06/21 09:32:38;;;;;;;;;1.25;0.00;;;;;49.25;9.09;100268.25;5072431;27;45954;-86
2021/06/21 09:35:04;;;;;;;;;2.50;1.00;;;;;46.97;9.51;100281.13;5063956;28;45559;-87
2021/06/21 09:37:43;;;;;;;;;0.00;0.00;;;;;46.94;11.92;100267.88;5058159;27;45614;-87
2021/06/21 09:40:08;;;;;;;;;0.00;0.00;;;;;48.82;10.12;100263.03;5070860;28;45576;-86
2021/06/21 09:42:36;;;;;;;;;1.00;0.50;;;;;50.07;10.48;100269.50;5068793;28;45257;-87
2021/06/21 09:45:02;;;;;;;;;0.25;0.00;;;;;50.69;10.00;100281.94;5070896;28;45480;-87
2021/06/21 09:47:28;;;;;;;;;0.00;0.00;;;;;51.04;9.45;100281.50;5066844;28;45438;-87
2021/06/21 09:50:06;;;;;;;;;0.00;0.00;;;;;50.64;8.35;100292.72;5068835;28;45545;-87
2021/06/21 09:52:32;;;;;;;;;0.00;0.00;;;;;49.21;9.60;100289.81;5073855;27;45485;-86
2021/06/21 09:54:58;;;;;;;;;0.75;0.00;;;;;48.81;9.73;100279.03;5069139;28;45392;-87
2021/06/21 09:57:25;;;;;;;;;0.50;0.50;;;;;48.78;9.87;100287.38;5068285;28;45242;-87
2021/06/21 09:59:52;;;;;;;;;0.25;0.00;;;;;49.72;9.37;100283.81;5074593;28;45398;-87
2021/06/21 10:02:22;;;;;;;;;0.25;0.25;;;;;50.60;9.23;100298.31;5070838;28;45286;-87
2021/06/21 10:04:47;;;;;;;;;0.00;0.00;;;;;50.96;8.97;100290.28;5071339;28;45849;-87
2021/06/21 10:07:32;;;;;;;;;0.00;0.00;;;;;50.31;9.31;100301.94;5064304;28;45377;-86
2021/06/21 10:10:04;;;;;;;;;0.00;0.00;;;;;48.40;8.82;100294.59;5074735;28;45396;-85
2021/06/21 10:12:34;;;;;;;;;1.00;0.00;;;;;45.77;11.02;100298.69;5075664;28;45406;-83
2021/06/21 10:15:00;;;;;;;;;5.25;0.50;;;;;43.24;11.86;100300.63;5074364;28;46130;-84
2021/06/21 10:17:26;;;;;;;;;2.25;0.75;;;;;40.90;13.48;100305.97;5072526;28;46286;-86
2021/06/21 10:19:53;;;;;;;;;0.50;0.50;;;;;39.40;14.42;100293.22;5075918;28;45570;-86
2021/06/21 10:22:21;;;;;;;;;0.00;0.00;;;;;38.63;16.22;100298.38;5077978;28;45287;-86
2021/06/21 10:24:50;;;;;;;;;0.00;0.00;;;;;39.17;16.24;100298.56;5076989;27;45534;-88
2021/06/21 10:27:18;;;;;;;;;0.00;0.00;;;;;40.21;15.89;100297.06;5082517;28;48134;-88
2021/06/21 10:29:43;;;;;;;;;0.75;0.00;;;;;39.91;15.41;100293.00;5074456;27;45376;-89
2021/06/21 10:32:09;;;;;;;;;0.00;0.00;;;;;39.35;15.53;100294.09;5072254;27;45402;-86
2021/06/21 10:34:36;;;;;;;;;0.00;0.00;;;;;38.62;16.57;100286.50;5077541;27;45558;-87
2021/06/21 10:37:02;;;;;;;;;0.75;0.00;;;;;38.33;16.62;100294.94;5080184;27;45473;-91
2021/06/21 10:39:34;;;;;;;;;0.25;0.00;;;;;37.63;17.05;100285.63;5074010;27;45739;-93
2021/06/21 10:42:06;;;;;;;;;0.00;0.00;;;;;36.87;17.31;100284.44;5080255;28;44770;-90
2021/06/21 10:44:37;;;;;;;;;1.50;0.75;;;;;36.46;18.39;100280.31;5077810;28;45502;-88
2021/06/21 10:47:39;;;;;;;;;0.00;0.00;;;;;36.16;19.14;100284.06;5088363;28;45286;-88
2021/06/21 10:50:19;;;;;;;;;0.00;0.00;;;;;36.22;19.12;100286.53;5085725;28;45584;-89
2021/06/21 10:52:47;;;;;;;;;0.00;0.00;;;;;36.10;19.63;100276.94;5083751;27;45242;-89
2021/06/21 10:55:32;;;;;;;;;0.00;0.00;;;;;35.87;19.68;100287.53;5069608;27;45550;-91
2021/06/21 10:58:05;;;;;;;;;0.75;0.75;;;;;35.96;19.80;100277.59;5068751;28;45480;-90
2021/06/21 11:00:33;;;;;;;;;1.75;1.00;;;;;36.44;19.21;100277.84;5063312;28;45327;-89
2021/06/21 11:02:59;;;;;;;;;0.50;0.50;;;;;36.55;19.45;100284.13;5066898;28;45414;-91
2021/06/21 11:05:39;;;;;;;;;4.50;0.75;;;;;36.66;19.27;100288.44;5068159;28;44903;-91
2021/06/21 11:08:18;;;;;;;;;0.25;0.25;;;;;36.56;19.40;100288.50;5080945;28;47110;-90
2021/06/21 11:10:46;;;;;;;;;0.25;0.00;;;;;36.35;19.23;100283.16;5072463;28;45527;-90
2021/06/21 11:16:20;;;;;;;;;0.00;0.00;;;;;36.48;20.36;100276.19;5077110;28;45204;-92
2021/06/21 11:18:51;;;;;;;;;1.50;1.00;;;;;36.48;19.59;100280.88;5067483;28;45694;-86
2021/06/21 11:22:04;;;;;;;;;1.25;1.00;;;;;36.30;19.75;100283.19;5064635;28;45453;-90
2021/06/21 11:24:43;;;;;;;;;1.00;1.00;;;;;36.28;20.26;100273.56;5060878;27;48261;-90
2021/06/21 11:27:11;;;;;;;;;0.25;0.00;;;;;36.23;20.25;100276.38;5078967;28;45359;-92
2021/06/21 11:29:41;;;;;;;;;1.00;1.00;;;;;35.93;20.78;100271.81;5070631;27;47079;-91
2021/06/21 11:33:51;;;;;;;;;2.50;1.50;;;;;35.46;20.98;100264.84;5144505;27;45368;-93
2021/06/21 11:36:34;;;;;;;;;2.50;0.25;;;;;35.18;21.22;100266.25;5102628;27;45270;-93